.
WxDataArchive / Data Records for 2012-07-25
2012-07-24 July 2012 2012-07-26

Data Records for Wednesday, 25 July 2012

Time	Temp	Chill	HIndex	Humid	Dewpt	 Wind 	HiWind	WindDir	Rain 	Barom 
-----	----	-----	------	-----	-----	------	------	-------	-----	----- 
00:00	73.5	73.5	73.5	77	65.8	0	4	270	0.00	29.937 
00:05	73.5	73.5	73.5	77	65.8	0	1	270	0.00	29.937 
00:10	73.5	73.5	73.5	76	65.5	0	1	270	0.00	29.937 
00:15	73.5	73.5	73.5	75	65.1	0	3	270	0.00	29.938 
00:20	73.5	73.5	73.5	75	65.1	1	3	270	0.00	29.938 
00:25	73.3	73.3	73.3	77	65.6	2	6	90	0.00	29.938 
00:30	73.2	73.2	73.2	78	65.9	2	5	90	0.00	29.945 
00:35	72.8	72.8	72.8	79	65.9	2	3	90	0.00	29.945 
00:40	72.7	72.7	72.7	80	66.2	1	4	90	0.00	29.945 
00:45	72.3	72.3	72.3	81	66.1	2	6	68	0.00	29.948 
00:50	72.1	72.1	72.1	81	65.9	1	2	90	0.00	29.948 
00:55	72.0	72.0	72.0	81	65.8	2	4	112	0.00	29.948 
01:00	71.8	71.8	71.8	81	65.6	1	4	68	0.00	29.949 
01:05	71.6	71.6	71.6	81	65.4	1	4	68	0.00	29.949 
01:10	71.6	71.6	71.6	81	65.4	1	2	68	0.00	29.949 
01:15	71.5	71.5	71.5	82	65.7	2	5	68	0.00	29.950 
01:20	71.1	71.1	71.1	82	65.3	1	3	68	0.00	29.950 
01:25	70.9	70.9	70.9	82	65.1	2	5	68	0.00	29.950 
01:30	70.8	70.8	70.8	83	65.4	1	3	68	0.00	29.949 
01:35	70.6	70.6	70.6	83	65.2	1	3	68	0.00	29.949 
01:40	70.4	70.4	70.4	83	65.0	1	3	68	0.00	29.949 
01:45	70.3	70.3	70.3	84	65.2	1	4	68	0.00	29.949 
01:50	70.3	70.3	70.3	84	65.2	1	3	68	0.00	29.949 
01:55	70.1	70.1	70.1	83	64.7	1	3	68	0.00	29.949 
02:00	69.9	69.9	69.9	83	64.5	1	4	68	0.00	29.947 
02:05	69.9	69.9	69.9	83	64.5	0	2	68	0.00	29.947 
02:10	69.8	69.8	69.8	83	64.4	1	3	68	0.00	29.947 
02:15	69.6	69.6	69.6	83	64.2	1	4	68	0.00	29.939 
02:20	69.6	69.6	69.6	83	64.2	0	3	68	0.00	29.939 
02:25	69.4	69.4	69.4	83	64.0	1	4	68	0.00	29.939 
02:30	69.3	69.3	69.3	83	63.9	0	2	68	0.00	29.941 
02:35	69.1	69.1	69.1	83	63.7	0	2	68	0.00	29.941 
02:40	69.1	69.1	69.1	84	64.1	1	3	68	0.00	29.941 
02:45	68.9	68.9	68.9	83	63.5	0	2	68	0.00	29.936 
02:50	68.9	68.9	68.9	83	63.5	1	4	68	0.00	29.936 
02:55	68.8	68.8	68.8	84	63.8	0	3	68	0.00	29.936 
03:00	68.8	68.8	68.8	84	63.8	1	3	68	0.00	29.938 
03:05	68.6	68.6	68.6	84	63.6	1	3	68	0.00	29.938 
03:10	68.4	68.4	68.4	84	63.4	0	2	68	0.00	29.938 
03:15	68.4	68.4	68.4	84	63.4	0	2	68	0.00	29.936 
03:20	68.3	68.3	68.3	84	63.3	0	3	68	0.00	29.936 
03:25	68.1	68.1	68.1	84	63.1	1	3	68	0.00	29.936 
03:30	68.1	68.1	68.1	84	63.1	1	3	68	0.00	29.933 
03:35	67.9	67.9	67.9	84	62.9	0	1	68	0.00	29.933 
03:40	67.8	67.8	67.8	84	62.8	0	1	68	0.00	29.933 
03:45	67.6	67.6	67.6	84	62.6	1	4	68	0.00	29.933 
03:50	67.6	67.6	67.6	84	62.6	0	2	68	0.00	29.933 
03:55	67.6	67.6	67.6	84	62.6	0	2	68	0.00	29.933 
04:00	67.4	67.4	67.4	84	62.4	0	1	68	0.00	29.933 
04:05	67.4	67.4	67.4	85	62.7	0	1	68	0.00	29.933 
04:10	67.3	67.3	67.3	85	62.6	0	1	68	0.00	29.933 
04:15	67.1	67.1	67.1	85	62.4	0	0	---	0.00	29.941 
04:20	66.8	66.8	66.8	85	62.1	0	0	---	0.00	29.941 
04:25	66.8	66.8	66.8	85	62.1	0	1	68	0.00	29.941 
04:30	66.6	66.6	66.6	86	62.3	0	1	68	0.00	29.933 
04:35	66.4	66.4	66.4	86	62.1	0	0	---	0.00	29.933 
04:40	66.4	66.4	66.4	86	62.1	0	0	---	0.00	29.933 
04:45	66.3	66.3	66.3	86	62.0	0	1	68	0.00	29.934 
04:50	66.3	66.3	66.3	86	62.0	0	1	68	0.00	29.934 
04:55	66.1	66.1	66.1	86	61.8	0	1	68	0.00	29.934 
05:00	66.1	66.1	66.1	86	61.8	0	1	68	0.00	29.933 
05:05	66.1	66.1	66.1	86	61.8	0	2	68	0.00	29.933 
05:10	66.1	66.1	66.1	86	61.8	0	2	68	0.00	29.933 
05:15	66.1	66.1	66.1	86	61.8	0	1	68	0.00	29.930 
05:20	66.0	66.0	66.0	86	61.7	0	1	68	0.00	29.930 
05:25	66.1	66.1	66.1	86	61.8	0	2	68	0.00	29.930 
05:30	66.1	66.1	66.1	86	61.8	0	1	68	0.00	29.923 
05:35	66.1	66.1	66.1	86	61.8	0	1	68	0.00	29.923 
05:40	66.1	66.1	66.1	86	61.8	0	1	68	0.00	29.923 
05:45	66.3	66.3	66.3	86	62.0	0	2	68	0.00	29.929 
05:50	66.3	66.3	66.3	86	62.0	0	2	68	0.00	29.929 
05:55	66.3	66.3	66.3	86	62.0	1	2	68	0.00	29.929 
06:00	66.1	66.1	66.1	86	61.8	0	3	68	0.00	29.925 
06:05	66.1	66.1	66.1	86	61.8	0	2	68	0.00	29.925 
06:10	66.1	66.1	66.1	86	61.8	0	3	68	0.00	29.925 
06:15	66.0	66.0	66.0	86	61.7	0	1	68	0.00	29.933 
06:20	66.0	66.0	66.0	86	61.7	0	1	68	0.00	29.933 
06:25	65.8	65.8	65.8	87	61.8	0	2	68	0.00	29.933 
06:30	65.8	65.8	65.8	87	61.8	0	1	68	0.00	29.929 
06:35	65.8	65.8	65.8	87	61.8	0	2	68	0.00	29.929 
06:40	65.8	65.8	65.8	87	61.8	1	2	68	0.00	29.929 
06:45	65.8	65.8	65.8	86	61.5	1	3	68	0.00	29.922 
06:50	66.0	66.0	66.0	86	61.7	0	3	68	0.00	29.922 
06:55	66.0	66.0	66.0	86	61.7	1	3	68	0.00	29.922 
07:00	66.1	66.1	66.1	85	61.5	1	2	68	0.00	29.923 
07:05	66.1	66.1	66.1	85	61.5	0	1	68	0.00	29.923 
07:10	66.3	66.3	66.3	85	61.6	0	3	68	0.00	29.923 
07:15	66.4	66.4	66.4	84	61.4	1	3	68	0.00	29.921 
07:20	66.6	66.6	66.6	84	61.6	1	3	68	0.00	29.921 
07:25	66.8	66.8	66.8	83	61.5	0	3	68	0.00	29.921 
07:30	66.9	66.9	66.9	83	61.6	1	4	68	0.00	29.921 
07:35	66.9	66.9	66.9	82	61.2	1	3	68	0.00	29.921 
07:40	67.1	67.1	67.1	82	61.4	0	2	68	0.00	29.921 
07:45	67.1	67.1	67.1	81	61.1	0	2	68	0.00	29.931 
07:50	67.3	67.3	67.3	81	61.3	0	2	68	0.00	29.931 
07:55	67.4	67.4	67.4	81	61.4	0	1	68	0.00	29.931 
08:00	67.6	67.6	67.6	80	61.2	1	2	68	0.00	29.934 
08:05	68.1	68.1	68.1	79	61.3	0	4	68	0.00	29.934 
08:10	68.6	68.6	68.6	77	61.1	0	2	135	0.00	29.934 
08:15	69.3	69.3	69.3	74	60.6	1	2	135	0.00	29.937 
08:20	69.9	69.9	69.9	73	60.8	1	3	112	0.00	29.937 
08:25	70.6	70.6	70.6	71	60.7	1	4	112	0.00	29.937 
08:30	70.8	70.8	70.8	70	60.5	1	3	90	0.00	29.933 
08:35	70.9	70.9	70.9	69	60.2	1	3	90	0.00	29.933 
08:40	71.3	71.3	71.3	68	60.2	1	3	112	0.00	29.933 
08:45	71.8	71.8	71.8	67	60.2	1	3	90	0.00	29.936 
08:50	72.1	72.1	72.1	67	60.5	1	3	90	0.00	29.936 
08:55	72.5	72.5	72.5	65	60.0	1	3	90	0.00	29.936 
09:00	72.8	72.8	72.8	64	59.9	1	3	90	0.00	29.932 
09:05	73.3	73.3	73.3	63	59.9	1	4	90	0.00	29.932 
09:10	73.5	73.5	73.5	62	59.7	1	3	90	0.00	29.932 
09:15	73.9	73.9	73.9	61	59.6	1	3	90	0.00	29.933 
09:20	74.0	74.0	74.0	59	58.7	1	4	90	0.00	29.933 
09:25	74.4	74.4	74.4	59	59.1	1	2	90	0.00	29.933 
09:30	74.9	74.9	74.9	57	58.6	1	4	90	0.00	29.923 
09:35	75.3	75.3	77.6	58	59.5	1	3	112	0.00	29.923 
09:40	75.4	75.4	77.7	58	59.6	2	5	112	0.00	29.923 
09:45	74.9	74.9	74.9	57	58.6	2	4	90	0.00	29.932 
09:50	74.7	74.7	74.7	56	57.9	1	3	112	0.00	29.932 
09:55	75.3	75.3	77.7	56	58.5	1	3	112	0.00	29.932 
10:00	75.8	75.8	78.0	55	58.5	1	4	112	0.00	29.930 
10:05	76.5	76.5	78.4	56	59.6	0	2	180	0.00	29.930 
10:10	76.7	76.7	78.5	54	58.8	2	6	68	0.00	29.930 
10:15	76.8	76.8	78.5	52	57.8	1	4	68	0.00	29.916 
10:20	77.2	77.2	78.9	55	59.8	1	4	112	0.00	29.916 
10:25	77.4	77.4	78.8	50	57.3	1	5	112	0.00	29.916 
10:30	77.4	77.4	78.9	52	58.4	1	4	112	0.00	29.918 
10:35	77.6	77.6	79.0	51	58.0	2	4	90	0.00	29.918 
10:40	77.9	77.9	79.2	50	57.7	1	4	112	0.00	29.918 
10:45	77.6	77.6	79.0	51	58.0	3	7	68	0.00	29.911 
10:50	77.6	77.6	79.0	50	57.5	2	5	68	0.00	29.911 
10:55	77.7	77.7	79.0	50	57.6	2	4	90	0.00	29.911 
11:00	77.9	77.9	79.1	49	57.2	2	4	90	0.00	29.910 
11:05	78.5	78.5	79.5	48	57.2	2	6	112	0.00	29.910 
11:10	78.8	78.8	79.7	48	57.4	2	6	90	0.00	29.910 
11:15	79.4	79.4	80.1	47	57.4	2	4	90	0.00	29.904 
11:20	79.6	79.6	80.1	46	57.0	2	7	90	0.00	29.904 
11:25	79.9	79.9	80.6	49	59.0	2	5	90	0.00	29.904 
11:30	80.3	80.3	80.8	47	58.2	1	3	90	0.00	29.897 
11:35	80.1	80.1	80.5	46	57.4	1	4	90	0.00	29.897 
11:40	79.4	79.4	80.2	49	58.5	2	7	90	0.00	29.897 
11:45	79.9	79.9	80.9	52	60.7	1	3	90	0.00	29.887 
11:50	80.5	80.5	81.0	48	59.0	2	6	90	0.00	29.887 
11:55	80.9	80.9	81.3	47	58.8	2	5	112	0.00	29.887 
12:00	81.1	81.1	81.7	49	60.1	2	5	90	0.00	29.880 
12:05	81.2	81.2	81.6	47	59.0	2	6	90	0.00	29.880 
12:10	81.6	81.6	82.2	49	60.6	2	4	68	0.00	29.880 
12:15	82.0	82.0	82.8	50	61.5	1	6	68	0.00	29.864 
12:20	82.4	82.4	83.2	50	61.9	2	4	112	0.00	29.864 
12:25	82.8	82.8	83.3	48	61.1	1	3	135	0.00	29.864 
12:30	82.8	82.8	83.3	48	61.1	3	5	112	0.00	29.862 
12:35	83.0	83.0	84.5	53	64.1	0	3	90	0.00	29.862 
12:40	83.4	83.4	84.0	48	61.6	2	5	90	0.00	29.862 
12:45	83.2	83.2	84.0	49	62.0	2	5	68	0.00	29.850 
12:50	83.2	83.2	84.3	51	63.2	1	4	90	0.00	29.850 
12:55	83.6	83.6	84.4	49	62.4	1	4	68	0.00	29.850 
13:00	83.8	83.8	84.5	48	62.0	2	6	90	0.00	29.846 
13:05	83.4	83.4	84.4	50	62.8	2	6	112	0.00	29.846 
13:10	83.2	83.2	84.1	50	62.6	2	4	135	0.00	29.846 
13:15	83.2	83.2	84.3	51	63.2	2	4	68	0.00	29.843 
13:20	83.0	83.0	84.1	51	63.0	1	3	112	0.00	29.843 
13:25	83.0	83.0	84.1	51	63.0	1	4	68	0.00	29.843 
13:30	82.8	82.8	84.2	53	63.9	1	4	90	0.00	29.836 
13:35	83.0	83.0	84.5	53	64.1	1	3	90	0.00	29.836 
13:40	83.2	83.2	84.7	53	64.3	1	5	270	0.00	29.836 
13:45	83.8	83.8	85.7	54	65.3	1	4	112	0.00	29.821 
13:50	84.1	84.1	85.5	51	64.0	2	5	112	0.00	29.821 
13:55	84.5	84.5	86.3	52	64.9	1	5	112	0.00	29.821 
14:00	85.1	85.1	86.6	50	64.3	1	3	112	0.00	29.820 
14:05	85.7	85.7	88.0	52	66.0	1	3	112	0.00	29.820 
14:10	86.1	86.1	88.0	50	65.3	1	6	90	0.00	29.820 
14:15	86.3	86.3	89.3	53	67.1	2	7	112	0.00	29.812 
14:20	86.7	86.7	89.6	52	66.9	1	4	338	0.00	29.812 
14:25	87.0	87.0	89.4	50	66.1	2	5	68	0.00	29.812 
14:30	87.0	87.0	90.1	52	67.2	2	5	68	0.00	29.801 
14:35	86.7	86.7	89.6	52	66.9	2	7	112	0.00	29.801 
14:40	87.0	87.0	91.1	55	68.8	1	3	112	0.00	29.801 
14:45	87.2	87.2	90.4	52	67.4	1	5	112	0.00	29.796 
14:50	87.6	87.6	90.7	51	67.2	1	4	112	0.00	29.796 
14:55	87.6	87.6	91.1	52	67.8	1	5	90	0.00	29.796 
15:00	87.8	87.8	91.4	52	67.9	2	6	90	0.00	29.783 
15:05	87.6	87.6	91.5	53	68.3	2	6	68	0.00	29.783 
15:10	87.6	87.6	91.1	52	67.8	2	5	90	0.00	29.783 
15:15	87.8	87.8	91.4	52	67.9	1	5	112	0.00	29.784 
15:20	87.8	87.8	92.2	54	69.0	1	6	0	0.00	29.784 
15:25	88.2	88.2	92.1	52	68.3	1	4	90	0.00	29.784 
15:30	88.4	88.4	92.5	52	68.5	2	5	90	0.00	29.773 
15:35	88.6	88.6	93.3	53	69.2	1	5	90	0.00	29.773 
15:40	88.8	88.8	92.8	51	68.3	2	6	292	0.00	29.773 
15:45	89.3	89.3	94.6	53	69.9	1	4	90	0.00	29.766 
15:50	89.7	89.7	95.4	53	70.3	1	4	90	0.00	29.766 
15:55	89.9	89.9	95.3	52	69.9	1	4	22	0.00	29.766 
16:00	89.9	89.9	95.8	53	70.4	2	6	90	0.00	29.763 
16:05	90.1	90.1	96.2	53	70.6	0	3	90	0.00	29.763 
16:10	90.1	90.1	96.7	54	71.2	1	3	90	0.00	29.763 
16:15	89.5	89.5	94.5	52	69.5	2	4	90	0.00	29.753 
16:20	89.0	89.0	94.5	54	70.2	2	5	90	0.00	29.753 
16:25	88.8	88.8	94.1	54	70.0	2	6	135	0.00	29.753 
16:30	89.3	89.3	96.0	56	71.5	1	4	90	0.00	29.751 
16:35	89.7	89.7	96.4	55	71.3	1	4	68	0.00	29.751 
16:40	90.1	90.1	97.7	56	72.2	1	4	90	0.00	29.751 
16:45	90.1	90.1	96.2	53	70.6	1	4	270	0.00	29.750 
16:50	89.9	89.9	97.3	56	72.1	2	4	270	0.00	29.750 
16:55	89.7	89.7	97.4	57	72.4	1	4	68	0.00	29.750 
17:00	89.9	89.9	96.8	55	71.5	2	5	270	0.00	29.749 
17:05	89.9	89.9	97.8	57	72.6	1	5	270	0.00	29.749 
17:10	90.3	90.3	97.6	55	71.9	1	4	90	0.00	29.749 
17:15	90.5	90.5	98.6	56	72.6	1	3	68	0.00	29.738 
17:20	90.7	90.7	98.0	54	71.7	2	5	270	0.00	29.738 
17:25	90.7	90.7	98.5	55	72.3	2	4	270	0.00	29.738 
17:30	90.7	90.7	98.0	54	71.7	2	3	270	0.00	29.735 
17:35	90.5	90.5	98.1	55	72.1	2	6	292	0.00	29.735 
17:40	90.3	90.3	98.2	56	72.4	1	4	90	0.00	29.735 
17:45	90.3	90.3	97.6	55	71.9	2	4	270	0.00	29.733 
17:50	90.1	90.1	98.3	57	72.8	1	11	248	0.00	29.733 
17:55	90.3	90.3	98.7	57	73.0	1	4	248	0.00	29.733 
18:00	90.3	90.3	98.7	57	73.0	1	4	270	0.00	29.721 
18:05	90.5	90.5	99.7	58	73.7	1	5	270	0.00	29.721 
18:10	90.5	90.5	99.7	58	73.7	1	3	68	0.00	29.721 
18:15	90.3	90.3	99.3	58	73.5	1	3	248	0.00	29.710 
18:20	90.3	90.3	99.3	58	73.5	1	3	90	0.00	29.710 
18:25	90.3	90.3	99.8	59	74.0	1	6	90	0.00	29.710 
18:30	90.3	90.3	99.3	58	73.5	2	5	90	0.00	29.701 
18:35	90.1	90.1	98.8	58	73.3	1	4	90	0.00	29.701 
18:40	90.1	90.1	99.4	59	73.8	1	4	292	0.00	29.701 
18:45	90.1	90.1	99.4	59	73.8	1	3	248	0.00	29.697 
18:50	90.3	90.3	99.8	59	74.0	1	3	248	0.00	29.697 
18:55	90.3	90.3	99.8	59	74.0	1	3	270	0.00	29.697 
19:00	90.3	90.3	100.4	60	74.5	0	4	270	0.00	29.695 
19:05	90.1	90.1	99.4	59	73.8	1	5	68	0.00	29.695 
19:10	90.1	90.1	99.9	60	74.3	0	3	68	0.00	29.695 
19:15	90.1	90.1	99.9	60	74.3	0	3	248	0.00	29.689 
19:20	90.1	90.1	100.5	61	74.8	0	1	248	0.00	29.689 
19:25	90.1	90.1	100.5	61	74.8	0	1	248	0.00	29.689 
19:30	90.1	90.1	100.5	61	74.8	0	1	248	0.00	29.687 
19:35	89.9	89.9	99.4	60	74.1	0	2	248	0.00	29.687 
19:40	89.9	89.9	100.0	61	74.6	0	2	248	0.00	29.687 
19:45	89.9	89.9	100.0	61	74.6	0	3	270	0.00	29.686 
19:50	89.9	89.9	100.6	62	75.1	0	2	270	0.00	29.686 
19:55	89.9	89.9	100.6	62	75.1	0	2	292	0.00	29.686 
20:00	89.9	89.9	100.6	62	75.1	0	1	292	0.00	29.682 
20:05	89.7	89.7	100.1	62	74.9	0	2	292	0.00	29.682 
20:10	89.5	89.5	100.2	63	75.2	0	2	292	0.00	29.682 
20:15	89.5	89.5	100.2	63	75.2	0	1	292	0.00	29.678 
20:20	89.3	89.3	100.2	64	75.5	0	2	292	0.00	29.678 
20:25	89.3	89.3	100.2	64	75.5	0	2	292	0.00	29.678 
20:30	89.0	89.0	100.0	65	75.7	0	2	292	0.00	29.669 
20:35	88.8	88.8	99.5	65	75.5	0	2	292	0.00	29.669 
20:40	88.8	88.8	100.1	66	75.9	0	1	292	0.00	29.669 
20:45	88.6	88.6	99.6	66	75.7	0	1	292	0.00	29.668 
20:50	88.4	88.4	99.6	67	76.0	0	1	292	0.00	29.668 
20:55	88.2	88.2	99.6	68	76.3	0	1	292	0.00	29.668 
21:00	88.0	88.0	99.1	68	76.1	0	2	292	0.00	29.668 
21:05	87.8	87.8	98.6	68	75.9	0	0	---	0.00	29.668 
21:10	87.6	87.6	98.6	69	76.1	0	0	---	0.00	29.668 
21:15	87.4	87.4	98.1	69	75.9	0	1	292	0.00	29.667 
21:20	87.2	87.2	98.1	70	76.2	0	0	---	0.00	29.667 
21:25	87.0	87.0	98.1	71	76.4	0	0	---	0.00	29.667 
21:30	87.0	87.0	98.1	71	76.4	0	0	---	0.00	29.666 
21:35	86.7	86.7	97.8	72	76.6	0	1	292	0.00	29.666 
21:40	86.5	86.5	97.7	73	76.8	0	0	---	0.00	29.666 
21:45	86.3	86.3	97.2	73	76.6	0	0	---	0.00	29.669 
21:50	86.3	86.3	97.7	74	77.0	0	0	---	0.00	29.669 
21:55	86.1	86.1	97.1	74	76.8	0	0	---	0.00	29.669 
22:00	85.9	85.9	97.1	75	77.0	0	1	292	0.00	29.665 
22:05	85.7	85.7	96.5	75	76.8	0	0	---	0.00	29.665 
22:10	85.5	85.5	96.4	76	77.0	0	0	---	0.00	29.665 
22:15	85.5	85.5	96.4	76	77.0	0	1	292	0.00	29.659 
22:20	85.3	85.3	96.3	77	77.2	0	0	---	0.00	29.659 
22:25	85.3	85.3	96.3	77	77.2	0	0	---	0.00	29.659 
22:30	85.1	85.1	95.8	77	77.1	0	0	---	0.00	29.650 
22:35	84.9	84.9	95.2	77	76.9	0	1	292	0.00	29.650 
22:40	84.9	84.9	95.2	77	76.9	0	4	292	0.00	29.650 
22:45	84.9	84.9	95.2	77	76.9	0	1	292	0.00	29.644 
22:50	84.7	84.7	94.7	77	76.7	0	2	292	0.00	29.644 
22:55	84.7	84.7	94.3	76	76.3	0	2	292	0.00	29.644 
23:00	84.5	84.5	93.4	75	75.7	0	2	292	0.00	29.634 
23:05	84.5	84.5	93.4	75	75.7	0	1	292	0.00	29.634 
23:10	84.5	84.5	93.0	74	75.3	0	2	292	0.00	29.634 
23:15	84.3	84.3	92.5	74	75.1	0	1	292	0.00	29.632 
23:20	84.1	84.1	92.0	74	74.9	0	1	292	0.00	29.632 
23:25	84.1	84.1	92.0	74	74.9	0	2	292	0.00	29.632 
23:30	84.0	84.0	91.8	74	74.8	0	2	315	0.00	29.620 
23:35	83.8	83.8	91.3	74	74.6	0	1	315	0.00	29.620 
23:40	83.6	83.6	90.9	74	74.4	0	1	315	0.00	29.620 
23:45	83.4	83.4	90.4	74	74.2	0	2	315	0.00	29.618 
23:50	83.2	83.2	90.0	74	74.0	0	3	315	0.00	29.618 
23:55	83.2	83.2	90.0	74	74.0	0	2	315	0.00	29.618 

CoCoRaHS
IN-AL-39
A2 Web Hosting
Creative Commons License
GoDaddy
search engine by freefind advanced

loaded 2018-11-16 00:11:31 • last modified 2010-11-18 10:43:29
Privacy PolicyDisclaimer
• wx.awcolley.com is powered by PmWiki v.2002016 •
• all content (unless otherwise noted) © 2018 A W Colley